Time;durP1;ratioP1;P1;durP2;ratioP2;P2;SDS_P1;SDS_P2;PMS_P1;PMS_P2;Temp;Humidity;BMP_temperature;BMP_pressure;BME280_temperature;BME280_humidity;BME280_pressure;Samples;Min_cycle;Max_cycle;Signal;HPM_P1;HPM_P2
2021/10/15 00:00:59;;;;;;;3.72;1.60;;;7.90;90.90;;;;;;5049941;28;20037;-68
2021/10/15 00:04:04;;;;;;;1.60;1.38;;;7.90;90.80;;;;;;5053158;28;20049;-68
2021/10/15 00:07:08;;;;;;;4.82;1.27;;;7.90;90.80;;;;;;5050243;28;20036;-69
2021/10/15 00:10:13;;;;;;;2.85;1.42;;;8.00;90.80;;;;;;5049294;28;20037;-69
2021/10/15 00:13:17;;;;;;;2.22;1.30;;;8.00;90.80;;;;;;5053605;28;20483;-68
2021/10/15 00:16:21;;;;;;;3.67;1.25;;;8.00;90.90;;;;;;5049950;28;20036;-68
2021/10/15 00:19:25;;;;;;;3.80;1.30;;;7.90;91.10;;;;;;5049447;28;20467;-69
2021/10/15 00:22:30;;;;;;;3.22;1.70;;;7.90;91.10;;;;;;5049586;28;20364;-68
2021/10/15 00:25:34;;;;;;;1.98;1.40;;;7.90;91.00;;;;;;5051484;28;20397;-69
2021/10/15 00:28:38;;;;;;;2.10;1.45;;;8.00;91.10;;;;;;5069530;28;20040;-69
2021/10/15 00:31:42;;;;;;;4.90;1.42;;;8.00;91.10;;;;;;5057070;28;20176;-68
2021/10/15 00:34:46;;;;;;;2.80;1.88;;;8.00;91.10;;;;;;5053294;28;20052;-69
2021/10/15 00:37:50;;;;;;;3.45;1.60;;;8.00;91.20;;;;;;5049690;28;20037;-69
2021/10/15 00:40:54;;;;;;;3.17;1.50;;;8.00;91.20;;;;;;5049064;28;20378;-68
2021/10/15 00:43:59;;;;;;;4.03;1.55;;;8.00;91.20;;;;;;5049170;28;20037;-68
2021/10/15 00:47:04;;;;;;;2.17;1.27;;;8.00;91.30;;;;;;5049685;28;20033;-68
2021/10/15 00:50:09;;;;;;;2.55;1.70;;;8.00;91.60;;;;;;5052749;28;20362;-68
2021/10/15 00:53:14;;;;;;;4.75;2.17;;;8.00;91.40;;;;;;5056913;28;20032;-68
2021/10/15 00:56:19;;;;;;;4.07;1.73;;;8.00;91.40;;;;;;5069472;28;20471;-68
2021/10/15 00:59:23;;;;;;;3.15;1.63;;;8.00;91.40;;;;;;5050457;28;20033;-68
2021/10/15 01:02:27;;;;;;;4.72;1.60;;;8.10;91.40;;;;;;5049346;28;20037;-68
2021/10/15 01:05:32;;;;;;;4.40;2.00;;;8.10;91.50;;;;;;5049310;28;20033;-68
2021/10/15 01:08:40;;;;;;;3.75;1.95;;;8.10;91.60;;;;;;5048969;28;20278;-68
2021/10/15 01:11:45;;;;;;;4.00;1.42;;;8.10;91.80;;;;;;5052948;28;20033;-69
2021/10/15 01:14:50;;;;;;;2.47;1.73;;;8.10;91.70;;;;;;5053005;28;20041;-68
2021/10/15 01:17:54;;;;;;;2.58;1.27;;;8.20;92.10;;;;;;5053180;28;20029;-68
2021/10/15 01:20:58;;;;;;;1.70;1.13;;;8.20;92.20;;;;;;5056027;28;20045;-68
2021/10/15 01:24:03;;;;;;;1.55;1.17;;;8.10;92.10;;;;;;5056956;28;20036;-68
2021/10/15 01:27:09;;;;;;;1.38;1.10;;;8.10;92.20;;;;;;5053026;28;20045;-69
2021/10/15 01:30:15;;;;;;;5.47;1.50;;;8.10;92.20;;;;;;5052193;28;20045;-69
2021/10/15 01:33:19;;;;;;;2.72;1.27;;;8.10;92.20;;;;;;5054692;28;20044;-68
2021/10/15 01:36:24;;;;;;;4.45;1.52;;;8.20;92.20;;;;;;5072564;28;20475;-68
2021/10/15 01:39:28;;;;;;;2.17;1.30;;;8.30;92.10;;;;;;5071276;28;20044;-68
2021/10/15 01:45:56;;;;;;;3.20;1.48;;;8.20;92.50;;;;;;5052909;28;20041;-67
2021/10/15 01:48:59;;;;;;;3.78;1.85;;;8.20;92.20;;;;;;5052419;28;20032;-68
2021/10/15 01:52:04;;;;;;;3.03;1.55;;;7.90;92.20;;;;;;5056154;28;20360;-68
2021/10/15 01:55:09;;;;;;;2.25;1.33;;;7.80;92.50;;;;;;5052015;28;20037;-68
2021/10/15 01:58:14;;;;;;;2.40;1.40;;;7.70;93.00;;;;;;5051822;28;20037;-68
2021/10/15 02:01:17;;;;;;;2.85;1.40;;;7.60;93.50;;;;;;5055606;28;20029;-68
2021/10/15 02:04:22;;;;;;;2.50;1.50;;;7.50;93.80;;;;;;5051850;28;20041;-68
2021/10/15 02:07:26;;;;;;;2.83;1.60;;;7.40;93.60;;;;;;5052402;28;20340;-68
2021/10/15 02:10:30;;;;;;;5.25;1.70;;;7.40;94.00;;;;;;5051950;28;20032;-68
2021/10/15 02:13:34;;;;;;;2.75;1.48;;;7.30;94.20;;;;;;5055719;28;20036;-68
2021/10/15 02:16:39;;;;;;;2.53;1.60;;;7.20;94.60;;;;;;5051996;28;20036;-68
2021/10/15 02:19:46;;;;;;;2.88;1.58;;;7.20;94.80;;;;;;5067415;28;20043;-68
2021/10/15 02:22:51;;;;;;;2.58;1.55;;;7.30;94.80;;;;;;5070278;28;20037;-68
2021/10/15 02:25:55;;;;;;;2.70;1.70;;;7.40;94.40;;;;;;5072104;28;20044;-68
2021/10/15 02:28:59;;;;;;;2.67;1.55;;;7.30;94.40;;;;;;5053171;28;20037;-68
2021/10/15 02:32:03;;;;;;;4.43;1.38;;;7.30;95.00;;;;;;5057768;28;20402;-68
2021/10/15 02:35:08;;;;;;;3.47;1.95;;;7.30;95.30;;;;;;5071285;28;20372;-68
2021/10/15 02:38:13;;;;;;;3.95;1.80;;;7.30;95.70;;;;;;5051069;28;20474;-68
2021/10/15 02:41:17;;;;;;;3.97;1.67;;;7.30;96.20;;;;;;5059952;28;20036;-68
2021/10/15 02:44:21;;;;;;;3.65;2.00;;;7.40;96.80;;;;;;5071060;28;20040;-68
2021/10/15 02:47:25;;;;;;;2.40;1.60;;;7.50;96.80;;;;;;5071561;28;20032;-68
2021/10/15 02:50:30;;;;;;;4.05;2.08;;;7.60;96.80;;;;;;5065837;28;20040;-68
2021/10/15 02:53:34;;;;;;;2.03;1.40;;;7.60;96.90;;;;;;5071087;28;20045;-68
2021/10/15 02:56:38;;;;;;;2.13;1.90;;;7.60;97.00;;;;;;5051580;28;20041;-69
2021/10/15 02:59:42;;;;;;;3.42;1.80;;;7.60;97.20;;;;;;5066645;28;20033;-68
2021/10/15 03:02:46;;;;;;;4.05;1.60;;;7.60;97.50;;;;;;5069545;28;20032;-68
2021/10/15 03:05:50;;;;;;;2.92;1.77;;;7.70;97.60;;;;;;5071283;28;20037;-68
2021/10/15 03:08:54;;;;;;;2.75;1.60;;;7.70;97.50;;;;;;5050842;28;20041;-68
2021/10/15 03:11:58;;;;;;;2.10;1.50;;;7.70;97.50;;;;;;5053617;28;20048;-68
2021/10/15 03:15:03;;;;;;;3.40;1.60;;;7.80;97.70;;;;;;5070688;28;20491;-70
2021/10/15 03:18:07;;;;;;;4.95;1.95;;;7.90;97.70;;;;;;5070044;28;20037;-69
2021/10/15 03:21:11;;;;;;;4.20;1.50;;;7.90;97.60;;;;;;5065563;28;20479;-69
2021/10/15 03:24:16;;;;;;;2.40;1.50;;;7.90;97.80;;;;;;5070633;28;20487;-68
2021/10/15 03:27:20;;;;;;;3.35;1.75;;;8.00;97.80;;;;;;5069464;28;20032;-68
2021/10/15 03:30:24;;;;;;;2.35;1.55;;;8.00;97.70;;;;;;5064551;28;20040;-69
2021/10/15 03:33:28;;;;;;;3.03;1.67;;;7.90;98.00;;;;;;5069449;28;20044;-68
2021/10/15 03:36:32;;;;;;;2.70;1.58;;;7.90;98.10;;;;;;5050308;28;20372;-68
2021/10/15 03:39:36;;;;;;;3.88;1.73;;;7.90;98.40;;;;;;5053426;28;20029;-68
2021/10/15 03:42:40;;;;;;;3.05;1.60;;;7.80;98.20;;;;;;5052013;28;20357;-68
2021/10/15 03:45:45;;;;;;;2.60;1.35;;;7.70;98.50;;;;;;5050231;28;20045;-68
2021/10/15 03:48:48;;;;;;;2.95;1.77;;;7.70;98.60;;;;;;5053692;28;20041;-68
2021/10/15 03:51:52;;;;;;;2.45;1.52;;;7.60;99.00;;;;;;5050139;28;20045;-68
2021/10/15 03:54:56;;;;;;;4.65;1.92;;;7.50;99.40;;;;;;5050001;28;20037;-68
2021/10/15 03:58:00;;;;;;;4.95;1.73;;;7.50;99.60;;;;;;5066947;28;20467;-68
2021/10/15 04:01:04;;;;;;;3.30;1.50;;;7.50;99.80;;;;;;5068277;28;20270;-68
2021/10/15 04:04:08;;;;;;;2.38;1.67;;;7.40;99.90;;;;;;5070148;28;20486;-68
2021/10/15 04:07:13;;;;;;;3.60;1.58;;;7.40;99.90;;;;;;5069075;28;20040;-68
2021/10/15 04:10:17;;;;;;;3.50;1.88;;;7.40;99.90;;;;;;5068260;28;20036;-68
2021/10/15 04:13:21;;;;;;;2.70;2.03;;;7.40;99.90;;;;;;5069787;28;20044;-68
2021/10/15 04:16:26;;;;;;;3.72;1.90;;;7.50;99.90;;;;;;5052007;28;20033;-68
2021/10/15 04:19:31;;;;;;;4.07;2.30;;;7.50;99.90;;;;;;5048217;28;20037;-68
2021/10/15 04:22:35;;;;;;;3.67;1.80;;;7.60;99.90;;;;;;5049947;28;20464;-68
2021/10/15 04:25:39;;;;;;;4.30;2.00;;;7.60;99.90;;;;;;5068394;28;20045;-68
2021/10/15 04:28:43;;;;;;;2.85;1.60;;;7.60;99.90;;;;;;5064288;28;20036;-69
2021/10/15 04:31:47;;;;;;;3.50;2.28;;;7.70;99.90;;;;;;5065581;28;20479;-68
2021/10/15 04:34:51;;;;;;;3.38;2.28;;;7.70;99.90;;;;;;5049720;28;20388;-69
2021/10/15 04:37:55;;;;;;;4.97;1.83;;;7.70;99.90;;;;;;5058571;28;20029;-69
2021/10/15 04:40:59;;;;;;;4.18;2.10;;;7.70;99.90;;;;;;5066673;28;20045;-68
2021/10/15 04:44:04;;;;;;;3.03;2.05;;;7.70;99.90;;;;;;5049806;28;20033;-68
2021/10/15 04:47:08;;;;;;;3.47;1.80;;;7.70;99.90;;;;;;5069314;28;20032;-68
2021/10/15 04:50:13;;;;;;;4.68;2.15;;;7.80;99.90;;;;;;5072269;28;20028;-68
2021/10/15 04:53:18;;;;;;;14.20;2.00;;;7.80;99.90;;;;;;5053917;28;20475;-69
2021/10/15 04:56:22;;;;;;;8.15;2.15;;;7.70;99.90;;;;;;5056903;28;20052;-68
2021/10/15 04:59:26;;;;;;;3.17;1.67;;;7.50;99.90;;;;;;5053110;28;20033;-68
2021/10/15 05:02:30;;;;;;;3.40;1.92;;;7.50;99.90;;;;;;5053277;28;20595;-68
2021/10/15 05:05:34;;;;;;;2.72;1.83;;;7.30;99.90;;;;;;5069436;28;20036;-68
2021/10/15 05:08:44;;;;;;;4.18;2.30;;;7.00;99.90;;;;;;5068345;28;20036;-68
2021/10/15 05:11:48;;;;;;;4.53;1.90;;;6.80;99.90;;;;;;5073618;28;20044;-68
2021/10/15 05:14:52;;;;;;;3.17;2.05;;;6.80;99.90;;;;;;5072645;28;20479;-68
2021/10/15 05:17:57;;;;;;;3.67;2.50;;;6.70;99.90;;;;;;5072537;28;20032;-67
2021/10/15 05:21:00;;;;;;;8.05;2.00;;;6.60;99.90;;;;;;5072789;28;20033;-68
2021/10/15 05:24:04;;;;;;;11.93;3.17;;;6.50;99.90;;;;;;5053195;28;20037;-67
2021/10/15 05:27:08;;;;;;;5.85;2.20;;;6.50;99.90;;;;;;5052475;28;20060;-68
2021/10/15 05:30:13;;;;;;;7.70;2.10;;;6.40;99.90;;;;;;5052173;28;20036;-68
2021/10/15 05:33:17;;;;;;;4.97;2.28;;;6.30;99.90;;;;;;5053211;28;20045;-68
2021/10/15 05:36:21;;;;;;;11.82;2.40;;;6.30;99.90;;;;;;5052183;28;20037;-68
2021/10/15 05:39:25;;;;;;;3.20;2.47;;;6.20;99.90;;;;;;5052819;28;20059;-68
2021/10/15 05:42:29;;;;;;;4.97;2.03;;;6.30;99.90;;;;;;5052794;28;20037;-68
2021/10/15 05:45:33;;;;;;;3.05;2.10;;;6.40;99.90;;;;;;5056510;28;20045;-68
2021/10/15 05:48:37;;;;;;;3.63;2.13;;;6.50;99.90;;;;;;5054160;28;20041;-68
2021/10/15 05:51:43;;;;;;;11.23;2.95;;;6.60;99.90;;;;;;5072668;28;20036;-68
2021/10/15 06:01:40;;;;;;;;;;;6.60;99.90;;;;;;5053163;28;20055;-68
2021/10/15 06:14:12;;;;;;;13.60;4.75;;;7.20;99.90;;;;;;5053175;28;20040;-68
2021/10/15 06:14:39;;;;;;;8.95;3.75;;;10.00;99.90;;;;;;5068349;28;20052;-68
2021/10/15 06:17:45;;;;;;;10.23;3.90;;;12.10;99.70;;;;;;5052111;28;20044;-68
2021/10/15 06:20:51;;;;;;;10.77;5.13;;;15.00;95.80;;;;;;5059545;28;20399;-68
2021/10/15 06:23:55;;;;;;;10.32;4.40;;;17.50;91.10;;;;;;5051541;28;20067;-68
2021/10/15 06:26:59;;;;;;;7.60;3.70;;;17.80;86.00;;;;;;5059125;28;20490;-68
2021/10/15 06:30:04;;;;;;;4.72;3.10;;;16.90;87.00;;;;;;5059250;28;20044;-69
2021/10/15 06:33:09;;;;;;;5.57;3.50;;;18.90;83.80;;;;;;5052157;28;20051;-69
2021/10/15 06:36:14;;;;;;;8.88;4.60;;;20.40;79.60;;;;;;5053054;28;20044;-69
2021/10/15 06:39:18;;;;;;;7.78;4.07;;;21.00;77.10;;;;;;5057032;28;20044;-69
2021/10/15 06:42:22;;;;;;;5.43;3.45;;;22.40;73.80;;;;;;5057295;28;20059;-69
2021/10/15 06:45:25;;;;;;;5.38;3.22;;;22.80;71.70;;;;;;5058104;28;20044;-69
2021/10/15 06:48:30;;;;;;;5.88;2.83;;;23.80;69.70;;;;;;5062941;28;20040;-69
2021/10/15 06:51:34;;;;;;;6.00;3.25;;;24.30;68.50;;;;;;5059728;28;20040;-71
2021/10/15 06:54:38;;;;;;;6.63;4.40;;;24.80;66.20;;;;;;5064496;28;20383;-69
2021/10/15 06:57:43;;;;;;;8.32;3.78;;;24.70;65.50;;;;;;5056994;28;20060;-69
2021/10/15 07:00:47;;;;;;;6.85;4.47;;;25.30;65.00;;;;;;5060370;28;20047;-69
2021/10/15 07:03:50;;;;;;;7.18;4.57;;;25.40;64.30;;;;;;5069381;28;20525;-70
2021/10/15 07:06:55;;;;;;;6.53;3.80;;;25.40;63.40;;;;;;5069048;28;20062;-69
2021/10/15 07:10:03;;;;;;;7.80;3.15;;;25.70;63.50;;;;;;5057916;28;20060;-69
2021/10/15 07:13:08;;;;;;;5.00;3.00;;;26.20;62.90;;;;;;5054003;28;20394;-69
2021/10/15 07:16:12;;;;;;;8.18;3.20;;;26.60;62.30;;;;;;5050824;28;20044;-69
2021/10/15 07:19:16;;;;;;;8.55;2.83;;;27.10;61.20;;;;;;5062544;28;20044;-69
2021/10/15 07:22:20;;;;;;;4.90;3.05;;;28.00;60.50;;;;;;5062003;28;20048;-69
2021/10/15 07:25:25;;;;;;;7.70;4.22;;;28.70;59.30;;;;;;5059253;28;20047;-69
2021/10/15 07:28:29;;;;;;;4.95;3.17;;;28.60;59.20;;;;;;5065103;28;20043;-69
2021/10/15 07:31:35;;;;;;;5.80;3.05;;;28.20;59.20;;;;;;5050638;28;20048;-70
2021/10/15 07:34:39;;;;;;;4.55;3.42;;;28.00;58.70;;;;;;5053874;28;20052;-69
2021/10/15 07:37:43;;;;;;;5.90;3.28;;;28.80;58.60;;;;;;5064497;28;20383;-69
2021/10/15 07:40:47;;;;;;;7.00;3.40;;;30.10;57.90;;;;;;5063743;28;20047;-69
2021/10/15 07:43:51;;;;;;;5.38;3.25;;;29.80;57.40;;;;;;5057295;28;20048;-68
2021/10/15 07:46:56;;;;;;;4.18;3.30;;;30.80;57.20;;;;;;5064514;28;20063;-68
2021/10/15 07:50:00;;;;;;;6.38;3.30;;;31.50;56.40;;;;;;5064715;28;20035;-69
2021/10/15 07:53:04;;;;;;;3.45;2.58;;;31.90;55.60;;;;;;5067845;28;20051;-70
2021/10/15 07:56:08;;;;;;;7.00;3.05;;;31.80;55.30;;;;;;5067083;28;20039;-70
2021/10/15 07:59:13;;;;;;;6.45;3.25;;;31.90;55.30;;;;;;5057806;28;20666;-70
2021/10/15 08:02:16;;;;;;;5.50;3.17;;;32.20;54.90;;;;;;5067428;28;20043;-70
2021/10/15 08:05:21;;;;;;;5.10;3.22;;;32.90;54.10;;;;;;5060180;28;20063;-70
2021/10/15 08:08:25;;;;;;;4.13;2.67;;;32.40;54.50;;;;;;5055453;28;20075;-70
2021/10/15 08:11:29;;;;;;;5.30;2.65;;;32.90;54.40;;;;;;5053299;28;20499;-70
2021/10/15 08:14:35;;;;;;;5.95;2.70;;;33.80;53.50;;;;;;5066886;28;20049;-70
2021/10/15 08:17:39;;;;;;;4.45;2.75;;;33.70;53.40;;;;;;5055534;28;20052;-70
2021/10/15 08:20:44;;;;;;;5.07;3.28;;;33.90;52.90;;;;;;5061008;28;20491;-70
2021/10/15 08:23:49;;;;;;;4.85;3.38;;;34.80;52.60;;;;;;5063858;28;20032;-70
2021/10/15 08:26:54;;;;;;;4.78;3.25;;;35.10;52.20;;;;;;5065418;28;20039;-70
2021/10/15 08:29:59;;;;;;;6.40;3.17;;;34.50;52.30;;;;;;5059228;28;20052;-71
2021/10/15 08:33:04;;;;;;;5.60;3.60;;;34.20;52.30;;;;;;5068643;28;20039;-69
2021/10/15 08:36:09;;;;;;;5.97;3.13;;;32.10;52.60;;;;;;5061039;28;20419;-70
2021/10/15 08:39:17;;;;;;;11.05;3.53;;;32.10;53.60;;;;;;5060389;28;20494;-70
2021/10/15 08:42:22;;;;;;;6.53;3.03;;;32.10;53.10;;;;;;5063055;28;20040;-70
2021/10/15 08:45:29;;;;;;;4.53;3.33;;;32.40;53.20;;;;;;5059077;28;20048;-71
2021/10/15 08:48:37;;;;;;;6.45;3.13;;;32.40;52.30;;;;;;5060686;28;20543;-71
2021/10/15 08:51:41;;;;;;;6.93;2.65;;;33.20;52.10;;;;;;5063112;28;20044;-70
2021/10/15 08:54:45;;;;;;;6.07;3.10;;;33.00;52.20;;;;;;5061754;28;20044;-70
2021/10/15 08:57:52;;;;;;;6.47;2.60;;;33.00;51.40;;;;;;5063259;28;20043;-71
2021/10/15 09:00:59;;;;;;;3.85;2.72;;;32.20;52.20;;;;;;5061108;28;20052;-70
2021/10/15 09:04:04;;;;;;;5.72;2.30;;;32.30;52.20;;;;;;5078309;28;20051;-70
2021/10/15 09:07:11;;;;;;;10.07;2.78;;;33.10;52.10;;;;;;5062402;28;20042;-71
2021/10/15 09:10:18;;;;;;;6.30;2.88;;;33.30;51.20;;;;;;5054118;28;20052;-71
2021/10/15 09:13:22;;;;;;;5.72;2.92;;;32.60;51.60;;;;;;5064049;28;20047;-70
2021/10/15 09:16:26;;;;;;;4.18;2.13;;;32.50;51.40;;;;;;5063346;28;20047;-70
2021/10/15 09:19:44;;;;;;;5.22;2.85;;;33.50;51.10;;;;;;5059906;28;20044;-70
2021/10/15 09:22:48;;;;;;;4.85;1.92;;;33.10;50.60;;;;;;5062933;28;20051;-71
2021/10/15 09:25:51;;;;;;;3.50;2.22;;;32.80;51.10;;;;;;5062671;28;20415;-71
2021/10/15 09:28:55;;;;;;;4.85;2.40;;;33.50;50.10;;;;;;5055658;28;20652;-70
2021/10/15 09:32:01;;;;;;;2.95;1.85;;;33.90;50.50;;;;;;5065282;28;20044;-71
2021/10/15 09:35:07;;;;;;;2.53;1.80;;;35.20;50.20;;;;;;5064000;28;20044;-71
2021/10/15 09:38:11;;;;;;;4.38;2.00;;;36.00;49.60;;;;;;5061984;28;20060;-71
2021/10/15 09:41:38;;;;;;;2.83;1.70;;;36.60;49.30;;;;;;5067489;28;20060;-71
2021/10/15 09:44:42;;;;;;;3.10;1.73;;;36.60;48.50;;;;;;5066165;28;20383;-71
2021/10/15 09:47:57;;;;;;;4.53;2.00;;;36.70;48.40;;;;;;5069428;28;20490;-70
2021/10/15 09:51:28;;;;;;;2.95;1.73;;;36.00;48.20;;;;;;5065728;28;20067;-71
2021/10/15 09:54:32;;;;;;;3.42;2.03;;;36.30;48.20;;;;;;5066130;28;20047;-70
2021/10/15 09:57:41;;;;;;;3.70;1.80;;;37.10;48.20;;;;;;5068312;28;20486;-71
2021/10/15 10:00:46;;;;;;;2.95;1.65;;;37.00;47.80;;;;;;5065199;28;20035;-70
2021/10/15 10:03:50;;;;;;;2.65;1.73;;;36.30;47.50;;;;;;5057911;28;20048;-70
2021/10/15 10:06:56;;;;;;;2.15;1.50;;;35.70;47.60;;;;;;5065588;28;20038;-71
2021/10/15 10:10:02;;;;;;;3.15;1.70;;;35.60;48.10;;;;;;5064115;28;20044;-70
2021/10/15 10:13:08;;;;;;;2.85;1.77;;;35.90;47.40;;;;;;5064576;28;20036;-70
2021/10/15 10:16:12;;;;;;;2.83;1.35;;;35.70;47.40;;;;;;5053806;28;20490;-71
2021/10/15 10:19:20;;;;;;;2.13;1.42;;;36.30;48.20;;;;;;5059945;28;20051;-70
2021/10/15 10:22:29;;;;;;;2.88;1.60;;;36.30;46.90;;;;;;5063604;28;20048;-71
2021/10/15 10:25:34;;;;;;;2.65;1.48;;;36.10;46.70;;;;;;5062119;28;20332;-69
2021/10/15 10:28:39;;;;;;;1.90;1.50;;;36.10;47.40;;;;;;5069566;28;20040;-70
2021/10/15 10:31:44;;;;;;;2.35;1.50;;;35.20;47.40;;;;;;5065797;28;20502;-70
2021/10/15 10:34:48;;;;;;;2.97;1.50;;;34.10;48.40;;;;;;5065976;28;20052;-69
2021/10/15 10:38:18;;;;;;;2.67;1.40;;;34.80;48.40;;;;;;5067758;28;20039;-71
2021/10/15 10:41:27;;;;;;;4.68;2.72;;;35.50;47.30;;;;;;5062613;28;20044;-69
2021/10/15 10:44:34;;;;;;;3.28;1.63;;;35.40;47.40;;;;;;5061853;28;20047;-70
2021/10/15 10:47:38;;;;;;;3.55;1.80;;;34.80;47.60;;;;;;5066945;28;20438;-70
2021/10/15 10:51:12;;;;;;;2.40;1.33;;;33.60;47.80;;;;;;5062417;28;20048;-70
2021/10/15 10:54:26;;;;;;;4.00;1.50;;;33.40;48.30;;;;;;5059991;28;20398;-70
2021/10/15 10:57:32;;;;;;;2.38;1.50;;;33.90;47.80;;;;;;5057785;28;20490;-70
2021/10/15 11:00:36;;;;;;;4.50;1.52;;;34.30;48.40;;;;;;5058027;28;20047;-70
2021/10/15 11:03:41;;;;;;;2.00;1.27;;;33.60;48.40;;;;;;5058557;28;20048;-70
2021/10/15 11:06:59;;;;;;;10.07;2.05;;;33.40;48.50;;;;;;5059351;28;20040;-70
2021/10/15 11:10:22;;;;;;;2.90;1.80;;;34.60;48.00;;;;;;5063426;28;20399;-71
2021/10/15 11:13:33;;;;;;;3.58;1.40;;;34.00;47.80;;;;;;5061747;28;20047;-70
2021/10/15 11:16:37;;;;;;;1.80;1.00;;;34.50;48.20;;;;;;5059399;28;20040;-69
2021/10/15 11:19:42;;;;;;;1.70;1.35;;;34.20;48.30;;;;;;5056598;28;20054;-69
2021/10/15 11:22:52;;;;;;;1.95;1.02;;;34.30;48.10;;;;;;5058966;28;20051;-69
2021/10/15 11:25:56;;;;;;;2.70;1.20;;;34.30;48.10;;;;;;5059190;28;20060;-70
2021/10/15 11:29:00;;;;;;;2.45;1.30;;;34.60;47.70;;;;;;5061197;28;20269;-70
2021/10/15 11:32:05;;;;;;;3.95;1.50;;;34.30;47.60;;;;;;5061977;28;20648;-70
2021/10/15 11:35:20;;;;;;;3.35;1.58;;;32.80;48.70;;;;;;5063261;28;20043;-70
2021/10/15 11:38:26;;;;;;;2.42;1.30;;;33.00;48.60;;;;;;5054548;28;20379;-71
2021/10/15 11:41:31;;;;;;;1.85;1.02;;;33.80;47.80;;;;;;5061911;28;20047;-70
2021/10/15 11:44:37;;;;;;;2.38;1.25;;;33.30;48.20;;;;;;5063546;28;20040;-70
2021/10/15 11:47:41;;;;;;;1.23;0.88;;;33.20;48.90;;;;;;5065004;28;20051;-70
2021/10/15 11:50:50;;;;;;;1.38;0.95;;;33.20;49.10;;;;;;5066682;28;20506;-71
2021/10/15 11:53:57;;;;;;;1.75;1.00;;;33.60;47.80;;;;;;5064002;28;20056;-69
2021/10/15 11:57:02;;;;;;;2.30;1.20;;;33.90;47.50;;;;;;5068359;28;20080;-70
2021/10/15 12:00:10;;;;;;;1.77;0.80;;;34.30;47.60;;;;;;5056769;28;20043;-70
2021/10/15 12:03:52;;;;;;;2.22;0.60;;;34.60;47.10;;;;;;5059489;28;20047;-69
2021/10/15 12:06:56;;;;;;;1.98;0.93;;;34.80;47.40;;;;;;5066188;28;20426;-70
2021/10/15 12:10:01;;;;;;;2.25;1.30;;;33.70;47.50;;;;;;5065807;28;20059;-69
2021/10/15 12:13:05;;;;;;;2.40;1.17;;;33.60;48.30;;;;;;5069274;28;20028;-69
2021/10/15 12:16:31;;;;;;;4.10;0.85;;;33.20;48.10;;;;;;5066137;28;20052;-70
2021/10/15 12:19:38;;;;;;;1.50;0.93;;;33.80;48.30;;;;;;5059261;28;20063;-70
2021/10/15 12:22:42;;;;;;;1.02;0.73;;;33.50;48.70;;;;;;5060422;28;20391;-69
2021/10/15 12:25:46;;;;;;;1.50;1.00;;;33.40;47.80;;;;;;5062434;28;20487;-70
2021/10/15 12:28:50;;;;;;;1.00;0.70;;;32.90;48.60;;;;;;5054485;28;20388;-69
2021/10/15 12:32:15;;;;;;;1.40;0.85;;;32.60;48.50;;;;;;5064189;28;21137;-69
2021/10/15 12:35:24;;;;;;;3.42;0.93;;;32.80;48.50;;;;;;5065885;28;20044;-69
2021/10/15 12:38:28;;;;;;;2.45;1.13;;;32.20;48.70;;;;;;5061895;28;20410;-69
2021/10/15 12:41:32;;;;;;;3.22;0.85;;;31.60;49.40;;;;;;5058174;28;20056;-70
2021/10/15 12:44:36;;;;;;;1.77;1.20;;;31.70;49.20;;;;;;5066304;28;20383;-70
2021/10/15 12:47:52;;;;;;;2.95;0.90;;;31.90;49.50;;;;;;5062119;28;20545;-70
2021/10/15 12:51:09;;;;;;;5.53;0.98;;;32.30;48.70;;;;;;5064965;28;20044;-70
2021/10/15 12:54:52;;;;;;;3.30;1.08;;;31.90;48.70;;;;;;5060541;28;20044;-70
2021/10/15 12:58:05;;;;;;;3.45;1.20;;;31.40;49.00;;;;;;5063782;28;20040;-70
2021/10/15 13:01:23;;;;;;;1.67;1.00;;;31.60;49.10;;;;;;5061177;28;20039;-70
2021/10/15 13:04:27;;;;;;;1.52;0.90;;;31.80;49.20;;;;;;5057897;28;20040;-70
2021/10/15 13:07:31;;;;;;;2.05;0.88;;;32.60;48.60;;;;;;5066288;28;20490;-68
2021/10/15 13:10:35;;;;;;;3.00;1.10;;;32.10;48.50;;;;;;5068730;28;20047;-70
2021/10/15 13:13:39;;;;;;;4.53;1.00;;;31.20;49.30;;;;;;5065380;28;20040;-70
2021/10/15 13:16:44;;;;;;;1.48;1.10;;;30.60;49.30;;;;;;5061589;28;20600;-70
2021/10/15 13:19:48;;;;;;;1.77;0.93;;;31.20;49.70;;;;;;5067533;28;20055;-70
2021/10/15 13:22:58;;;;;;;2.45;1.00;;;31.60;49.30;;;;;;5061089;28;20048;-70
2021/10/15 13:26:03;;;;;;;1.40;0.90;;;31.20;48.70;;;;;;5066241;28;20067;-70
2021/10/15 13:29:08;;;;;;;2.03;1.08;;;31.00;49.20;;;;;;5064919;28;20044;-69
2021/10/15 13:32:11;;;;;;;1.70;1.13;;;29.90;49.50;;;;;;5060923;28;20324;-70
2021/10/15 13:35:16;;;;;;;1.80;0.80;;;29.80;50.00;;;;;;5056437;28;20035;-70
2021/10/15 13:38:23;;;;;;;2.15;1.00;;;30.20;50.30;;;;;;5064855;28;20047;-69
2021/10/15 13:41:46;;;;;;;3.97;1.17;;;30.40;50.00;;;;;;5060003;28;20036;-70
2021/10/15 13:51:32;;;;;;;3.35;0.93;;;29.60;50.20;;;;;;5067146;28;20048;-70
2021/10/15 13:54:37;;;;;;;1.52;0.80;;;29.50;50.80;;;;;;5058568;28;20052;-69
2021/10/15 13:57:41;;;;;;;2.38;0.82;;;29.10;50.40;;;;;;5061294;28;20048;-71
2021/10/15 14:00:47;;;;;;;1.45;0.73;;;28.50;50.90;;;;;;5059619;28;20506;-70
2021/10/15 14:06:57;;;;;;;2.05;0.82;;;28.10;51.10;;;;;;5065742;28;20055;-71
2021/10/15 14:10:01;;;;;;;1.55;0.73;;;28.00;51.10;;;;;;5061666;28;20506;-71
2021/10/15 14:13:05;;;;;;;2.90;0.90;;;28.30;50.90;;;;;;5064393;28;20044;-71
2021/10/15 14:16:09;;;;;;;1.50;0.70;;;27.60;51.60;;;;;;5055825;28;20052;-71
2021/10/15 14:19:13;;;;;;;1.83;0.88;;;27.60;51.70;;;;;;5061982;28;20497;-71
2021/10/15 14:22:18;;;;;;;3.17;0.73;;;27.50;51.90;;;;;;5060689;28;20052;-71
2021/10/15 14:25:22;;;;;;;1.60;1.00;;;27.00;52.10;;;;;;5066685;28;20055;-72
2021/10/15 14:28:27;;;;;;;1.13;0.70;;;26.70;52.40;;;;;;5059135;28;20367;-71
2021/10/15 14:31:32;;;;;;;1.90;0.80;;;27.00;52.50;;;;;;5065578;28;20055;-71
2021/10/15 14:34:36;;;;;;;0.60;0.60;;;27.40;52.50;;;;;;5065597;28;20060;-71
2021/10/15 14:37:40;;;;;;;1.08;0.80;;;27.20;52.80;;;;;;5063757;28;20042;-71
2021/10/15 14:40:45;;;;;;;1.73;0.93;;;26.80;52.70;;;;;;5067732;28;20051;-72
2021/10/15 14:43:49;;;;;;;1.20;0.73;;;27.10;52.90;;;;;;5055772;28;20049;-71
2021/10/15 14:46:53;;;;;;;2.25;0.95;;;26.80;53.20;;;;;;5061000;28;20036;-69
2021/10/15 14:49:58;;;;;;;1.90;0.98;;;26.30;53.10;;;;;;5063058;28;20036;-71
2021/10/15 14:53:02;;;;;;;2.22;0.80;;;26.00;53.60;;;;;;5068183;28;20418;-71
2021/10/15 14:56:06;;;;;;;1.58;0.90;;;25.90;53.90;;;;;;5061233;28;20040;-71
2021/10/15 14:59:12;;;;;;;5.00;0.82;;;25.60;53.90;;;;;;5061794;28;20035;-71
2021/10/15 15:02:16;;;;;;;2.13;0.90;;;25.30;54.30;;;;;;5069263;28;20055;-72
2021/10/15 15:05:20;;;;;;;1.92;1.17;;;25.10;54.50;;;;;;5062848;28;20052;-69
2021/10/15 15:08:24;;;;;;;5.25;1.27;;;25.00;54.70;;;;;;5068846;28;20051;-71
2021/10/15 15:11:29;;;;;;;2.63;0.85;;;24.90;54.60;;;;;;5064315;28;20478;-71
2021/10/15 15:14:33;;;;;;;1.38;0.88;;;24.80;55.00;;;;;;5060392;28;20042;-70
2021/10/15 15:17:38;;;;;;;2.95;1.23;;;24.20;55.70;;;;;;5064516;28;20127;-70
2021/10/15 15:20:49;;;;;;;4.65;1.27;;;23.60;56.40;;;;;;5064799;28;20418;-70
2021/10/15 15:23:54;;;;;;;3.75;1.35;;;22.80;57.30;;;;;;5067219;28;20047;-70
2021/10/15 15:26:58;;;;;;;3.70;1.45;;;22.20;58.30;;;;;;5069753;28;20044;-70
2021/10/15 15:30:04;;;;;;;1.95;1.20;;;22.00;58.90;;;;;;5051470;28;20044;-70
2021/10/15 15:33:10;;;;;;;3.53;1.48;;;21.80;58.90;;;;;;5053818;28;20518;-70
2021/10/15 15:36:14;;;;;;;2.75;1.40;;;21.60;59.20;;;;;;5057422;28;20056;-71
2021/10/15 15:39:19;;;;;;;1.63;1.20;;;21.40;59.60;;;;;;5062610;28;20497;-71
2021/10/15 15:42:23;;;;;;;3.28;1.58;;;21.30;60.00;;;;;;5058802;28;20055;-71
2021/10/15 15:45:27;;;;;;;2.55;1.40;;;21.10;60.00;;;;;;5061455;28;20047;-71
2021/10/15 15:48:38;;;;;;;2.85;1.48;;;20.60;61.00;;;;;;5062287;28;20047;-70
2021/10/15 15:51:42;;;;;;;2.10;1.30;;;20.30;61.70;;;;;;5066976;28;20047;-71
2021/10/15 15:54:46;;;;;;;2.45;1.30;;;19.90;62.20;;;;;;5064969;28;20044;-70
2021/10/15 15:57:52;;;;;;;1.48;1.10;;;19.60;63.20;;;;;;5063526;28;20049;-71
2021/10/15 16:00:56;;;;;;;2.45;1.42;;;19.20;63.70;;;;;;5068708;28;20036;-70
2021/10/15 16:04:00;;;;;;;2.42;1.30;;;18.80;64.70;;;;;;5064503;28;20044;-71
2021/10/15 16:07:04;;;;;;;3.25;1.20;;;18.50;65.50;;;;;;5065663;28;20055;-70
2021/10/15 16:10:10;;;;;;;2.17;1.50;;;18.10;66.10;;;;;;5058179;28;20048;-70
2021/10/15 16:13:14;;;;;;;2.10;1.27;;;17.70;66.80;;;;;;5060758;28;20039;-70
2021/10/15 16:16:18;;;;;;;3.83;1.30;;;17.30;67.60;;;;;;5066339;28;20052;-70
2021/10/15 16:19:22;;;;;;;2.10;1.27;;;17.00;68.30;;;;;;5069722;28;20494;-70
2021/10/15 16:22:26;;;;;;;3.83;1.50;;;16.80;69.60;;;;;;5065967;28;20043;-70
2021/10/15 16:25:30;;;;;;;2.67;1.27;;;16.50;69.70;;;;;;5059774;28;20056;-70
2021/10/15 16:28:34;;;;;;;3.10;1.30;;;16.30;70.00;;;;;;5063541;28;20043;-70
2021/10/15 16:31:39;;;;;;;2.30;1.17;;;16.10;70.70;;;;;;5062933;28;20048;-70
2021/10/15 16:34:42;;;;;;;5.63;1.15;;;15.90;71.00;;;;;;5060356;28;20043;-70
2021/10/15 16:37:47;;;;;;;2.83;1.20;;;15.70;71.30;;;;;;5070567;28;20043;-70